createdAt,value
2022-10-20T00:00:33.752Z,90.02
2022-10-20T00:04:43.799Z,90.33
2022-10-20T00:06:54.213Z,91.63
2022-10-20T00:13:48.409Z,90.87
2022-10-20T00:30:03.341Z,91.97
2022-10-20T00:36:24.987Z,92.55
2022-10-20T00:43:31.982Z,94.08
2022-10-20T00:53:14.715Z,93.31
2022-10-20T00:54:40.388Z,93.31
2022-10-20T00:56:04.958Z,93.31
2022-10-20T00:59:04.368Z,93.58
2022-10-20T01:00:11.439Z,93.48
2022-10-20T01:09:53.207Z,91.82
2022-10-20T01:11:00.771Z,91.93
2022-10-20T01:12:27.022Z,90.78
2022-10-20T01:17:27.970Z,90.85
2022-10-20T01:30:58.915Z,94.23
2022-10-20T01:31:58.901Z,94.12
2022-10-20T01:32:58.850Z,93.87
2022-10-20T01:33:58.942Z,93.66
2022-10-20T01:34:58.828Z,93.29
2022-10-20T01:36:00.039Z,93.35
2022-10-20T01:36:59.999Z,93.66
2022-10-20T01:54:09.535Z,94.20
2022-10-20T01:58:51.046Z,93.84
2022-10-20T02:02:41.701Z,94.61
2022-10-20T02:07:53.137Z,96.11
2022-10-20T02:13:04.448Z,96.27
2022-10-20T02:17:21.259Z,96.58
2022-10-20T02:21:37.507Z,96.21
2022-10-20T02:27:17.257Z,96.75
2022-10-20T02:31:01.548Z,96.54
2022-10-20T02:44:20.923Z,97.58
2022-10-20T02:48:06.251Z,97.43
2022-10-20T02:49:12.547Z,97.85
2022-10-20T02:52:50.892Z,97.02
2022-10-20T02:57:39.364Z,96.19
2022-10-20T03:01:54.267Z,93.88
2022-10-20T03:07:34.103Z,95.28
2022-10-20T03:11:18.144Z,94.92
2022-10-20T03:12:28.868Z,95.07
2022-10-20T03:15:40.964Z,94.34
2022-10-20T03:16:48.647Z,94.40
2022-10-20T03:20:30.648Z,94.24
2022-10-20T03:23:55.316Z,94.61
2022-10-20T03:27:42.641Z,94.51
2022-10-20T03:28:51.760Z,94.71
2022-10-20T03:30:16.390Z,94.30
2022-10-20T03:33:27.468Z,93.88
2022-10-20T03:37:17.173Z,93.47
2022-10-20T03:41:03.442Z,94.45
2022-10-20T03:44:00.024Z,94.65
2022-10-20T03:45:07.697Z,95.07
2022-10-20T03:49:42.159Z,95.03
2022-10-20T03:54:01.494Z,95.03
2022-10-20T03:56:52.346Z,94.40
2022-10-20T03:59:43.428Z,94.13
2022-10-20T04:00:50.497Z,94.34
2022-10-20T04:01:50.692Z,93.82
2022-10-20T04:07:21.837Z,96.47
2022-10-20T04:08:57.829Z,96.57
2022-10-20T04:11:35.843Z,97.30
2022-10-20T04:14:52.201Z,97.35
2022-10-20T04:15:52.091Z,97.20
2022-10-20T04:16:52.058Z,97.10
2022-10-20T04:17:52.035Z,97.27
2022-10-20T04:18:52.035Z,97.37
2022-10-20T04:19:51.990Z,97.16
2022-10-20T04:20:51.960Z,96.85
2022-10-20T04:21:51.986Z,97.16
2022-10-20T04:22:53.138Z,96.85
2022-10-20T04:23:53.209Z,96.75
2022-10-20T04:24:53.107Z,96.23
2022-10-20T04:25:53.177Z,95.81
2022-10-20T04:26:53.135Z,94.78
2022-10-20T04:30:09.707Z,94.46
2022-10-20T04:33:59.387Z,94.26
2022-10-20T04:34:59.474Z,94.05
2022-10-20T04:35:59.384Z,94.26
2022-10-20T04:36:59.365Z,93.57
2022-10-20T04:37:59.321Z,93.47
2022-10-20T04:38:59.316Z,92.74
2022-10-20T04:44:27.353Z,94.07
2022-10-20T04:47:46.700Z,95.21
2022-10-20T04:51:06.463Z,95.94
2022-10-20T04:52:06.476Z,96.36
2022-10-20T04:53:06.619Z,96.15
2022-10-20T04:54:06.442Z,96.67
2022-10-20T04:55:08.313Z,96.78
2022-10-20T04:56:07.584Z,96.78
2022-10-20T04:57:07.599Z,96.88
2022-10-20T04:58:07.561Z,96.67
2022-10-20T05:01:49.371Z,96.67
2022-10-20T05:02:57.202Z,96.47
2022-10-20T05:03:49.465Z,96.88
2022-10-20T05:04:49.334Z,96.78
2022-10-20T05:05:49.434Z,97.30
2022-10-20T05:06:49.329Z,97.19
2022-10-20T05:07:49.290Z,97.30
2022-10-20T05:08:49.306Z,97.30
2022-10-20T05:09:49.242Z,97.14
2022-10-20T05:10:50.437Z,97.19
2022-10-20T05:11:50.519Z,97.04
2022-10-20T05:12:50.400Z,97.35
2022-10-20T05:13:50.432Z,97.14
2022-10-20T05:14:51.387Z,96.83
2022-10-20T05:15:50.376Z,96.69
2022-10-20T05:16:50.524Z,96.31
2022-10-20T05:17:50.350Z,96.48
2022-10-20T05:18:50.439Z,96.48
2022-10-20T05:19:50.354Z,96.27
2022-10-20T05:21:07.951Z,95.96
2022-10-20T05:21:52.313Z,96.37
2022-10-20T05:22:50.297Z,95.96
2022-10-20T05:23:50.285Z,96.06
2022-10-20T05:24:50.300Z,94.86
2022-10-20T05:25:50.342Z,94.34
2022-10-20T05:26:50.222Z,94.03
2022-10-20T05:27:50.354Z,94.18
2022-10-20T05:28:50.351Z,93.87
2022-10-20T05:29:50.242Z,93.76
2022-10-20T05:30:50.268Z,94.12
2022-10-20T05:31:50.252Z,94.22
2022-10-20T05:32:50.185Z,94.53
2022-10-20T05:33:50.262Z,95.05
2022-10-20T05:34:50.668Z,95.36
2022-10-20T05:35:50.218Z,95.36
2022-10-20T05:36:50.145Z,96.20
2022-10-20T05:37:50.151Z,96.15
2022-10-20T05:38:50.267Z,95.63
2022-10-20T05:39:50.155Z,95.11
2022-10-20T05:40:50.149Z,95.11
2022-10-20T05:41:50.162Z,95.11
2022-10-20T05:42:50.306Z,95.32
2022-10-20T05:43:50.119Z,95.11
2022-10-20T05:44:50.061Z,95.32
2022-10-20T05:45:50.060Z,95.11
2022-10-20T05:46:50.116Z,96.04
2022-10-20T05:47:50.077Z,95.42
2022-10-20T05:48:50.047Z,95.21
2022-10-20T05:49:50.076Z,95.11
2022-10-20T05:50:50.014Z,95.26
2022-10-20T05:51:50.026Z,94.95
2022-10-20T05:52:50.090Z,94.59
2022-10-20T05:53:49.975Z,94.95
2022-10-20T05:54:49.942Z,95.05
2022-10-20T05:55:49.982Z,95.21
2022-10-20T05:56:49.959Z,94.90
2022-10-20T05:57:49.951Z,95.21
2022-10-20T05:58:49.910Z,95.11
2022-10-20T05:59:49.944Z,95.28
2022-10-20T06:00:49.911Z,95.17
2022-10-20T06:01:49.915Z,95.17
2022-10-20T06:02:49.952Z,95.17
2022-10-20T06:03:50.150Z,95.13
2022-10-20T06:05:00.703Z,94.45
2022-10-20T06:05:50.968Z,94.13
2022-10-20T06:06:49.852Z,93.66
2022-10-20T06:07:49.831Z,93.55
2022-10-20T06:08:49.910Z,94.07
2022-10-20T06:09:49.831Z,93.91
2022-10-20T06:10:49.918Z,94.22
2022-10-20T06:11:49.833Z,94.32
2022-10-20T06:12:49.794Z,94.95
2022-10-20T06:13:52.636Z,95.05
2022-10-20T06:14:51.939Z,96.20
2022-10-20T06:15:50.916Z,96.09
2022-10-20T06:16:49.852Z,96.72
2022-10-20T06:17:50.541Z,96.72
2022-10-20T06:18:49.794Z,96.82
2022-10-20T06:19:49.788Z,96.98
2022-10-20T06:20:52.683Z,97.09
2022-10-20T06:21:50.807Z,97.44
2022-10-20T06:22:49.722Z,97.09
2022-10-20T06:23:49.784Z,97.30
2022-10-20T06:24:49.733Z,97.19
2022-10-20T06:25:49.641Z,97.35
2022-10-20T06:26:49.667Z,97.14
2022-10-20T06:27:50.419Z,97.14
2022-10-20T06:28:52.307Z,96.79
2022-10-20T06:29:49.741Z,97.00
2022-10-20T06:30:49.624Z,96.83
2022-10-20T06:31:49.712Z,96.11
2022-10-20T06:32:49.619Z,96.21
2022-10-20T06:33:49.796Z,96.42
2022-10-20T06:34:49.619Z,96.42
2022-10-20T06:35:49.572Z,96.37
2022-10-20T06:36:49.616Z,96.54
2022-10-20T06:37:49.572Z,96.54
2022-10-20T06:38:49.638Z,97.16
2022-10-20T06:39:50.436Z,96.85
2022-10-20T06:40:49.557Z,96.50
2022-10-20T06:41:49.540Z,96.39
2022-10-20T06:42:49.543Z,96.45
2022-10-20T06:43:49.519Z,96.45
2022-10-20T06:44:49.526Z,96.45
2022-10-20T06:45:58.779Z,96.41
2022-10-20T06:47:12.856Z,95.74
2022-10-20T06:47:51.530Z,95.89
2022-10-20T06:48:49.605Z,95.95
2022-10-20T06:49:49.643Z,95.95
2022-10-20T06:50:49.534Z,94.91
2022-10-20T06:51:50.966Z,94.49
2022-10-20T06:52:49.476Z,93.87
2022-10-20T06:53:50.277Z,93.73
2022-10-20T06:54:49.527Z,93.21
2022-10-20T06:55:54.271Z,93.83
2022-10-20T06:56:49.503Z,93.21
2022-10-20T06:57:49.369Z,93.41
2022-10-20T06:58:49.455Z,94.24
2022-10-20T06:59:49.327Z,93.87
2022-10-20T07:00:49.394Z,94.08
2022-10-20T07:01:49.373Z,94.39
2022-10-20T07:02:49.341Z,94.81
2022-10-20T07:03:49.357Z,94.66
2022-10-20T07:04:49.341Z,94.87
2022-10-20T07:05:50.182Z,94.93
2022-10-20T07:06:49.319Z,94.82
2022-10-20T07:07:50.346Z,94.78
2022-10-20T07:08:49.333Z,94.68
2022-10-20T07:09:49.324Z,94.84
2022-10-20T07:10:49.484Z,94.47
2022-10-20T07:11:49.284Z,94.53
2022-10-20T07:12:49.281Z,94.07
2022-10-20T07:13:49.386Z,93.87
2022-10-20T07:14:49.309Z,93.87
2022-10-20T07:15:49.198Z,93.55
2022-10-20T07:16:49.171Z,93.55
2022-10-20T07:17:49.334Z,93.41
2022-10-20T07:18:49.238Z,92.07
2022-10-20T07:19:49.264Z,92.07
2022-10-20T07:20:49.199Z,91.92
2022-10-20T07:21:49.164Z,92.17
2022-10-20T07:22:49.158Z,91.82
2022-10-20T07:23:49.169Z,90.99
2022-10-20T07:24:49.151Z,91.92
2022-10-20T07:25:49.106Z,91.88
2022-10-20T07:26:49.147Z,91.30
2022-10-20T07:27:49.090Z,91.88
2022-10-20T07:28:53.319Z,91.88
2022-10-20T07:29:51.083Z,91.77
2022-10-20T07:30:49.051Z,91.73
2022-10-20T07:31:49.050Z,91.73
2022-10-20T07:32:49.019Z,91.42
2022-10-20T07:34:06.937Z,90.80
2022-10-20T07:34:51.121Z,90.66
2022-10-20T07:35:49.036Z,90.45
2022-10-20T07:36:49.009Z,90.66
2022-10-20T07:37:48.953Z,90.10
2022-10-20T07:38:48.980Z,90.10
2022-10-20T07:39:48.963Z,90.00
2022-10-20T07:40:48.969Z,89.65
2022-10-20T07:41:48.922Z,89.79
2022-10-20T07:42:49.151Z,90.10
2022-10-20T07:43:48.978Z,90.41
2022-10-20T07:44:49.029Z,90.61
2022-10-20T07:45:48.956Z,91.19
2022-10-20T07:46:48.885Z,90.78
2022-10-20T07:47:48.977Z,90.26
2022-10-20T07:48:48.933Z,90.16
2022-10-20T07:49:48.886Z,90.78
2022-10-20T07:50:48.850Z,90.57
2022-10-20T07:51:48.859Z,91.40
2022-10-20T07:52:49.003Z,91.50
2022-10-20T07:53:48.799Z,91.60
2022-10-20T07:54:48.843Z,91.60
2022-10-20T07:55:48.813Z,91.40
2022-10-20T07:56:48.867Z,90.78
2022-10-20T07:57:48.825Z,90.53
2022-10-20T07:58:48.815Z,90.01
2022-10-20T07:59:48.801Z,89.46
2022-10-20T08:00:48.741Z,88.84
2022-10-20T08:01:48.829Z,87.87
2022-10-20T08:02:48.726Z,87.67
2022-10-20T08:03:49.441Z,87.73
2022-10-20T08:04:48.679Z,87.12
2022-10-20T08:05:49.514Z,86.40
2022-10-20T08:06:48.679Z,86.66
2022-10-20T08:07:48.643Z,86.15
2022-10-20T08:08:48.636Z,86.05
2022-10-20T08:09:48.662Z,85.28
2022-10-20T08:10:48.621Z,84.98
2022-10-20T08:11:52.722Z,84.50
2022-10-20T08:12:50.798Z,84.20
2022-10-20T08:13:48.701Z,84.36
2022-10-20T08:14:48.963Z,84.05
2022-10-20T08:15:50.381Z,84.01
2022-10-20T08:16:49.675Z,83.85
2022-10-20T08:17:48.676Z,83.70
2022-10-20T08:18:52.698Z,83.70
2022-10-20T08:19:54.215Z,84.12
2022-10-20T08:20:48.686Z,84.22
2022-10-20T08:21:48.822Z,84.12
2022-10-20T08:22:49.928Z,83.50
2022-10-20T08:23:51.165Z,83.67
2022-10-20T08:24:49.735Z,83.46
2022-10-20T08:25:49.069Z,83.67
2022-10-20T08:26:48.581Z,82.91
2022-10-20T08:27:48.521Z,83.42
2022-10-20T08:28:48.489Z,83.12
2022-10-20T08:29:55.263Z,83.22
2022-10-20T08:30:49.483Z,82.91
2022-10-20T08:31:48.450Z,82.60
2022-10-20T08:32:48.472Z,81.88
2022-10-20T08:33:52.381Z,81.68
2022-10-20T08:34:48.443Z,81.88
2022-10-20T08:35:49.321Z,82.70
2022-10-20T08:36:48.438Z,83.12
2022-10-20T08:37:48.399Z,82.60
2022-10-20T08:38:48.453Z,82.40
2022-10-20T08:39:48.434Z,81.99
2022-10-20T08:40:48.361Z,82.56
2022-10-20T08:42:07.032Z,82.46
2022-10-20T08:42:50.431Z,82.77
2022-10-20T08:43:48.380Z,81.95
2022-10-20T08:44:48.319Z,81.95
2022-10-20T08:45:48.313Z,81.50
2022-10-20T08:46:48.294Z,80.10
2022-10-20T08:47:48.265Z,80.62
2022-10-20T08:48:48.288Z,80.10
2022-10-20T08:49:48.576Z,80.92
2022-10-20T08:50:48.448Z,81.64
2022-10-20T08:51:48.346Z,82.36
2022-10-20T08:52:48.626Z,81.74
2022-10-20T08:53:48.360Z,82.46
2022-10-20T08:54:48.323Z,82.36
2022-10-20T08:55:48.275Z,82.15
2022-10-20T08:56:48.348Z,81.64
2022-10-20T08:57:48.268Z,82.26
2022-10-20T08:58:48.385Z,82.22
2022-10-20T08:59:48.359Z,82.53
2022-10-20T09:00:48.381Z,81.91
2022-10-20T09:01:48.303Z,81.81
2022-10-20T09:02:48.263Z,81.71
2022-10-20T09:03:48.274Z,81.50
2022-10-20T09:04:48.381Z,81.81
2022-10-20T09:05:48.184Z,82.01
2022-10-20T09:06:48.316Z,81.09
2022-10-20T09:07:48.376Z,82.46
2022-10-20T09:08:48.289Z,82.93
2022-10-20T09:09:48.316Z,82.01
2022-10-20T09:10:48.180Z,82.12
2022-10-20T09:11:48.067Z,81.98
2022-10-20T09:12:48.189Z,81.57
2022-10-20T09:14:48.227Z,80.13
2022-10-20T09:15:48.052Z,81.36
2022-10-20T09:16:59.726Z,80.62
2022-10-20T09:17:50.188Z,81.54
2022-10-20T09:18:47.961Z,81.60
2022-10-20T09:19:48.085Z,81.91
2022-10-20T09:23:40.432Z,81.52
2022-10-20T09:26:03.411Z,79.96
2022-10-20T09:27:03.572Z,79.85
2022-10-20T09:29:55.094Z,80.39
2022-10-20T09:30:55.679Z,79.37
2022-10-20T09:31:56.409Z,80.15
2022-10-20T09:32:56.528Z,80.08
2022-10-20T09:33:56.259Z,80.05
2022-10-20T09:34:56.326Z,79.23
2022-10-20T09:35:56.241Z,78.92
2022-10-20T09:36:56.269Z,78.72
2022-10-20T09:37:56.243Z,78.41
2022-10-20T09:38:56.188Z,78.20
2022-10-20T09:39:56.232Z,78.20
2022-10-20T09:40:56.137Z,78.20
2022-10-20T09:41:56.276Z,77.19
2022-10-20T09:42:56.135Z,77.80
2022-10-20T09:43:58.061Z,78.11
2022-10-20T09:44:57.698Z,78.31
2022-10-20T09:45:57.127Z,77.90
2022-10-20T09:46:56.265Z,77.56
2022-10-20T09:47:56.161Z,77.86
2022-10-20T09:48:56.074Z,77.49
2022-10-20T09:50:00.795Z,77.04
2022-10-20T09:50:58.051Z,78.17
2022-10-20T09:51:56.062Z,78.99
2022-10-20T09:52:56.012Z,78.78
2022-10-20T09:53:56.076Z,78.17
2022-10-20T09:54:56.032Z,78.44
2022-10-20T09:55:56.086Z,78.54
2022-10-20T09:56:56.112Z,77.11
2022-10-20T09:57:56.378Z,77.18
2022-10-20T09:58:55.983Z,76.97
2022-10-20T09:59:58.652Z,77.59
2022-10-20T10:00:57.063Z,77.04
2022-10-20T10:01:55.957Z,77.34
2022-10-20T10:02:55.956Z,77.75
2022-10-20T10:03:55.928Z,76.87
2022-10-20T10:04:55.942Z,76.46
2022-10-20T10:05:55.907Z,77.08
2022-10-20T10:06:55.947Z,79.66
2022-10-20T10:07:55.947Z,80.58
2022-10-20T10:08:55.962Z,79.77
2022-10-20T10:09:55.901Z,79.63
2022-10-20T10:10:55.900Z,79.32
2022-10-20T10:11:55.875Z,78.16
2022-10-20T10:12:56.867Z,77.96
2022-10-20T10:13:55.867Z,77.04
2022-10-20T10:14:55.911Z,77.55
2022-10-20T10:15:55.833Z,77.75
2022-10-20T10:16:55.790Z,78.77
2022-10-20T10:17:55.802Z,78.57
2022-10-20T10:18:55.807Z,79.28
2022-10-20T10:19:56.518Z,77.55
2022-10-20T10:20:55.788Z,77.75
2022-10-20T10:21:55.739Z,77.34
2022-10-20T10:22:55.739Z,78.77
2022-10-20T10:23:55.806Z,78.00
2022-10-20T10:24:55.781Z,78.37
2022-10-20T10:25:59.248Z,78.57
2022-10-20T10:26:56.730Z,77.55
2022-10-20T10:27:55.739Z,77.11
2022-10-20T10:28:55.862Z,77.17
2022-10-20T10:29:55.803Z,76.87
2022-10-20T10:30:55.748Z,77.44
2022-10-20T10:31:55.670Z,76.32
2022-10-20T10:32:55.778Z,76.08
2022-10-20T10:33:55.695Z,74.86
2022-10-20T10:34:55.628Z,74.86
2022-10-20T10:35:55.630Z,74.11
2022-10-20T10:36:55.603Z,74.04
2022-10-20T10:37:55.653Z,73.80
2022-10-20T10:38:55.612Z,73.19
2022-10-20T10:39:55.811Z,73.91
2022-10-20T10:40:55.583Z,72.69
2022-10-20T10:41:55.545Z,72.96
2022-10-20T10:42:55.623Z,72.86
2022-10-20T10:43:56.946Z,75.13
2022-10-20T10:44:56.761Z,76.25
2022-10-20T10:45:55.549Z,73.94
2022-10-20T10:46:55.549Z,74.96
2022-10-20T10:47:55.502Z,77.40
2022-10-20T10:48:55.507Z,76.62
2022-10-20T10:49:56.398Z,76.39
2022-10-20T10:50:55.478Z,75.67
2022-10-20T10:51:55.555Z,75.37
2022-10-20T10:52:55.505Z,77.20
2022-10-20T10:53:55.530Z,77.44
2022-10-20T10:54:55.434Z,77.64
2022-10-20T10:55:55.482Z,77.75
2022-10-20T10:56:55.461Z,78.19
2022-10-20T10:57:55.403Z,78.97
2022-10-20T10:58:56.299Z,77.95
2022-10-20T10:59:55.390Z,76.90
2022-10-20T11:00:55.444Z,77.20
2022-10-20T11:01:55.318Z,77.37
2022-10-20T11:02:55.549Z,76.25
2022-10-20T11:03:56.441Z,75.81
2022-10-20T11:04:55.311Z,75.16
2022-10-20T11:05:55.363Z,73.74
2022-10-20T11:06:57.888Z,73.84
2022-10-20T11:07:55.342Z,73.80
2022-10-20T11:08:55.363Z,72.65
2022-10-20T11:09:55.327Z,71.03
2022-10-20T11:10:55.257Z,71.03
2022-10-20T11:11:55.274Z,73.06
2022-10-20T11:12:55.827Z,72.85
2022-10-20T11:13:55.274Z,71.94
2022-10-20T11:14:55.328Z,69.60
2022-10-20T11:15:55.185Z,70.11
2022-10-20T11:16:55.895Z,70.52
2022-10-20T11:17:55.191Z,71.33
2022-10-20T11:18:55.218Z,70.96
2022-10-20T11:19:55.167Z,72.48
2022-10-20T11:20:55.145Z,72.52
2022-10-20T11:21:55.307Z,72.48
2022-10-20T11:22:55.166Z,73.06
2022-10-20T11:23:55.205Z,72.34
2022-10-20T11:24:55.128Z,71.33
2022-10-20T11:25:55.594Z,71.77
2022-10-20T11:26:55.348Z,72.08
2022-10-20T11:27:55.131Z,71.84
2022-10-20T11:28:55.138Z,70.92
2022-10-20T11:29:55.055Z,71.12
2022-10-20T11:30:55.085Z,72.75
2022-10-20T11:31:55.093Z,72.78
2022-10-20T11:32:55.051Z,72.82
2022-10-20T11:33:55.077Z,73.39
2022-10-20T11:34:55.028Z,73.19
2022-10-20T11:35:55.094Z,72.52
2022-10-20T11:36:55.029Z,73.94
2022-10-20T11:37:55.067Z,73.13
2022-10-20T11:38:55.042Z,73.23
2022-10-20T11:39:55.191Z,72.78
2022-10-20T11:40:54.955Z,73.84
2022-10-20T11:41:54.961Z,75.30
2022-10-20T11:42:55.833Z,75.33
2022-10-20T11:43:54.944Z,76.35
2022-10-20T11:44:55.462Z,75.57
2022-10-20T11:45:54.911Z,75.74
2022-10-20T11:46:55.030Z,75.84
2022-10-20T11:47:54.898Z,76.11
2022-10-20T11:48:54.889Z,76.86
2022-10-20T11:49:55.122Z,76.08
2022-10-20T11:50:54.958Z,77.20
2022-10-20T11:51:54.886Z,77.24
2022-10-20T11:52:54.877Z,78.77
2022-10-20T11:53:54.872Z,78.16
2022-10-20T11:54:54.876Z,78.36
2022-10-20T11:55:54.852Z,77.64
2022-10-20T11:56:54.798Z,77.27
2022-10-20T11:57:57.558Z,78.16
2022-10-20T11:58:55.376Z,79.21
2022-10-20T11:59:54.825Z,79.00
2022-10-20T12:00:56.393Z,79.62
2022-10-20T12:01:54.812Z,78.91
2022-10-20T12:02:54.747Z,78.50
2022-10-20T12:03:54.764Z,78.80
2022-10-20T12:04:54.758Z,78.66
2022-10-20T12:05:55.296Z,79.32
2022-10-20T12:06:54.703Z,79.62
2022-10-20T12:08:10.980Z,80.02
2022-10-20T12:08:55.729Z,81.66
2022-10-20T12:09:54.707Z,82.51
2022-10-20T12:10:54.734Z,82.51
2022-10-20T12:11:54.640Z,81.39
2022-10-20T12:12:54.643Z,81.18
2022-10-20T12:13:54.671Z,81.59
2022-10-20T12:14:54.734Z,81.56
2022-10-20T12:15:54.622Z,80.57
2022-10-20T12:16:54.749Z,79.66
2022-10-20T12:17:54.610Z,79.11
2022-10-20T12:18:54.618Z,80.33
2022-10-20T12:19:54.650Z,80.64
2022-10-20T12:20:54.559Z,80.54
2022-10-20T12:21:54.549Z,79.62
2022-10-20T12:22:54.569Z,79.62
2022-10-20T12:23:54.599Z,79.82
2022-10-20T12:24:54.549Z,79.89
2022-10-20T12:25:54.607Z,79.89
2022-10-20T12:26:54.524Z,79.58
2022-10-20T12:27:54.511Z,79.68
2022-10-20T12:28:54.619Z,79.27
2022-10-20T12:29:54.532Z,78.73
2022-10-20T12:30:54.452Z,79.34
2022-10-20T12:31:56.904Z,79.54
2022-10-20T12:32:54.473Z,78.83
2022-10-20T12:33:54.489Z,78.93
2022-10-20T12:34:54.432Z,79.24
2022-10-20T12:35:55.312Z,79.14
2022-10-20T12:36:54.443Z,79.95
2022-10-20T12:38:26.976Z,78.93
2022-10-20T12:39:29.517Z,78.53
2022-10-20T12:39:54.601Z,78.73
2022-10-20T12:40:54.550Z,78.80
2022-10-20T12:41:54.365Z,78.12
2022-10-20T12:42:54.418Z,78.08
2022-10-20T12:43:54.382Z,77.26
2022-10-20T12:44:54.402Z,77.67
2022-10-20T12:45:54.307Z,77.78
2022-10-20T12:46:54.371Z,77.78
2022-10-20T12:50:08.773Z,78.73
2022-10-20T12:51:08.716Z,79.89
2022-10-20T12:52:08.583Z,79.58
2022-10-20T12:53:10.048Z,79.68
2022-10-20T12:54:09.860Z,79.89
2022-10-20T12:55:09.793Z,80.29
2022-10-20T12:56:09.829Z,79.48
2022-10-20T12:57:09.728Z,79.85
2022-10-20T12:58:09.736Z,80.29
2022-10-20T12:59:11.321Z,80.29
2022-10-20T13:02:24.662Z,81.86
2022-10-20T13:03:26.189Z,81.56
2022-10-20T13:04:25.615Z,82.78
2022-10-20T13:05:25.267Z,83.39
2022-10-20T13:06:29.105Z,83.70
2022-10-20T13:07:27.347Z,83.59
2022-10-20T13:08:30.897Z,83.25
2022-10-20T13:09:25.830Z,82.54
2022-10-20T13:10:26.394Z,81.82
2022-10-20T13:11:27.788Z,82.09
2022-10-20T13:15:34.230Z,82.60
2022-10-20T13:18:58.696Z,81.79
2022-10-20T13:21:50.002Z,80.83
2022-10-20T13:22:50.098Z,81.34
2022-10-20T13:27:10.399Z,82.90
2022-10-20T13:28:10.346Z,83.31
2022-10-20T13:29:20.430Z,83.11
2022-10-20T13:32:03.738Z,83.21
2022-10-20T13:33:25.345Z,83.92
2022-10-20T13:34:04.974Z,83.31
2022-10-20T13:35:02.181Z,83.01
2022-10-20T13:39:30.854Z,83.82
2022-10-20T13:42:19.883Z,82.66
2022-10-20T13:43:27.686Z,82.76
2022-10-20T13:44:22.618Z,83.17
2022-10-20T13:50:52.486Z,83.07
2022-10-20T13:51:52.596Z,83.07
2022-10-20T14:10:48.566Z,80.93
2022-10-20T14:21:44.063Z,81.34
2022-10-20T14:22:46.115Z,81.95
2022-10-20T14:24:21.548Z,81.74
2022-10-20T14:24:49.924Z,81.79
2022-10-20T14:26:22.507Z,82.35
2022-10-20T14:27:06.045Z,83.21
2022-10-20T14:33:48.543Z,82.90
2022-10-20T14:37:19.032Z,83.31
2022-10-20T14:38:19.365Z,83.21
2022-10-20T14:42:26.434Z,83.48
2022-10-20T14:43:28.193Z,83.48
2022-10-20T14:46:39.497Z,83.78
2022-10-20T14:51:51.863Z,84.84
2022-10-20T14:52:54.483Z,84.39
2022-10-20T14:53:55.004Z,84.50
2022-10-20T14:59:52.432Z,82.76
2022-10-20T15:02:36.553Z,82.76
2022-10-20T15:03:36.085Z,82.97
2022-10-20T15:03:41.691Z,83.37
2022-10-20T15:14:52.154Z,84.29
2022-10-20T15:16:09.323Z,83.62
2022-10-20T15:20:36.503Z,85.35
2022-10-20T15:21:59.124Z,85.80
2022-10-20T15:22:40.177Z,86.10
2022-10-20T15:23:43.923Z,86.21
2022-10-20T15:24:36.303Z,86.51
2022-10-20T15:25:37.832Z,87.12
2022-10-20T15:26:37.025Z,86.82
2022-10-20T15:27:35.696Z,87.47
2022-10-20T15:28:35.673Z,87.67
2022-10-20T15:29:37.503Z,87.84
2022-10-20T15:31:01.674Z,87.67
2022-10-20T15:31:39.615Z,87.84
2022-10-20T15:32:38.273Z,88.08
2022-10-20T15:33:37.366Z,88.39
2022-10-20T15:34:41.185Z,89.10
2022-10-20T15:35:38.167Z,89.30
2022-10-20T15:36:41.849Z,89.71
2022-10-20T15:45:53.714Z,89.51
2022-10-20T15:47:27.707Z,89.81
2022-10-20T15:49:27.103Z,90.16
2022-10-20T15:57:25.016Z,90.77
2022-10-20T16:00:13.544Z,90.57
2022-10-20T16:01:21.374Z,90.98
2022-10-20T16:02:13.538Z,91.39
2022-10-20T16:03:21.136Z,91.39
2022-10-20T16:04:13.623Z,92.14
2022-10-20T16:05:15.098Z,91.83
2022-10-20T16:06:47.283Z,92.45
2022-10-20T16:07:47.365Z,92.35
2022-10-20T16:09:47.422Z,91.83
2022-10-20T16:10:15.012Z,92.14
2022-10-20T16:11:48.053Z,91.33
2022-10-20T16:12:14.745Z,91.12
2022-10-20T16:13:47.116Z,91.33
2022-10-20T16:14:14.841Z,91.22
2022-10-20T16:17:24.578Z,92.24
2022-10-20T16:18:31.988Z,92.14
2022-10-20T16:22:34.761Z,90.51
2022-10-20T16:23:44.743Z,90.92
2022-10-20T16:24:43.810Z,90.92
2022-10-20T16:25:43.630Z,91.22
2022-10-20T16:26:42.213Z,90.92
2022-10-20T16:27:42.219Z,91.02
2022-10-20T16:28:42.244Z,90.92
2022-10-20T16:30:04.778Z,91.33
2022-10-20T16:31:08.354Z,91.94
2022-10-20T16:31:36.377Z,91.83
2022-10-20T16:33:08.206Z,91.98
2022-10-20T16:34:10.538Z,91.83
2022-10-20T16:35:09.370Z,91.22
2022-10-20T16:35:35.924Z,90.81
2022-10-20T16:36:36.598Z,90.81
2022-10-20T16:37:36.503Z,90.71
2022-10-20T16:38:39.047Z,90.10
2022-10-20T16:39:37.210Z,90.88
2022-10-20T16:40:36.344Z,90.77
2022-10-20T16:41:36.398Z,90.47
2022-10-20T16:42:35.939Z,91.08
2022-10-20T16:46:24.074Z,90.77
2022-10-20T16:46:44.180Z,90.67
2022-10-20T16:51:05.939Z,90.77
2022-10-20T16:52:06.208Z,90.16
2022-10-20T16:53:06.437Z,90.26
2022-10-20T16:54:06.689Z,90.06
2022-10-20T16:55:06.312Z,90.47
2022-10-20T16:56:39.939Z,90.36
2022-10-20T16:57:09.861Z,90.67
2022-10-20T16:58:16.362Z,90.77
2022-10-20T16:59:09.078Z,90.88
2022-10-20T17:00:12.987Z,90.77
2022-10-20T17:02:04.903Z,91.39
2022-10-20T17:02:25.450Z,91.22
2022-10-20T17:03:12.054Z,91.33
2022-10-20T17:04:12.382Z,91.83
2022-10-20T17:05:11.590Z,91.89
2022-10-20T17:06:14.732Z,91.94
2022-10-20T17:07:19.183Z,91.94
2022-10-20T17:08:11.749Z,92.04
2022-10-20T17:09:30.267Z,92.30
2022-10-20T17:10:14.024Z,92.35
2022-10-20T17:11:12.444Z,92.35
2022-10-20T17:12:11.689Z,92.45
2022-10-20T17:13:11.521Z,92.45
2022-10-20T17:14:12.142Z,92.55
2022-10-20T17:15:11.771Z,92.76
2022-10-20T17:16:12.001Z,92.55
2022-10-20T17:17:11.870Z,92.35
2022-10-20T17:18:11.788Z,92.86
2022-10-20T17:19:11.438Z,92.76
2022-10-20T17:20:11.399Z,93.06
2022-10-20T17:21:12.140Z,93.51
2022-10-20T17:23:11.366Z,94.94
2022-10-20T17:24:11.475Z,95.60
2022-10-20T17:25:12.460Z,95.70
2022-10-20T17:26:11.249Z,95.50
2022-10-20T17:27:11.298Z,96.21
2022-10-20T17:28:12.276Z,95.90
2022-10-20T17:29:11.322Z,95.60
2022-10-20T17:30:11.422Z,96.51
2022-10-20T17:31:11.514Z,96.01
2022-10-20T17:32:14.364Z,96.01
2022-10-20T17:33:13.247Z,96.01
2022-10-20T17:34:11.248Z,96.15
2022-10-20T17:35:11.370Z,96.36
2022-10-20T17:36:11.297Z,96.87
2022-10-20T17:37:12.019Z,96.87
2022-10-20T17:38:12.219Z,96.87
2022-10-20T17:39:11.211Z,96.97
2022-10-20T17:40:11.187Z,97.17
2022-10-20T17:41:11.307Z,96.67
2022-10-20T17:42:11.457Z,97.17
2022-10-20T17:43:11.175Z,97.17
2022-10-20T17:44:11.240Z,97.38
2022-10-20T17:45:11.026Z,97.28
2022-10-20T17:46:11.216Z,97.33
2022-10-20T17:47:11.072Z,97.58
2022-10-20T17:48:11.151Z,97.38
2022-10-20T17:49:11.048Z,97.42
2022-10-20T17:50:11.042Z,97.79
2022-10-20T17:51:11.170Z,97.74
2022-10-20T17:52:11.104Z,97.58
2022-10-20T17:53:37.648Z,97.63
2022-10-20T17:54:11.274Z,97.58
2022-10-20T17:55:12.480Z,97.58
2022-10-20T17:56:11.131Z,97.79
2022-10-20T17:57:11.282Z,97.38
2022-10-20T17:58:11.365Z,97.28
2022-10-20T18:00:19.162Z,96.62
2022-10-20T18:01:14.303Z,96.31
2022-10-20T18:02:13.107Z,96.11
2022-10-20T18:03:12.506Z,96.11
2022-10-20T18:04:11.984Z,95.60
2022-10-20T18:05:11.766Z,95.19
2022-10-20T18:06:26.336Z,95.09
2022-10-20T18:09:39.346Z,94.58
2022-10-20T18:10:08.577Z,94.48
2022-10-20T18:11:08.353Z,94.68
2022-10-20T18:12:08.376Z,94.17
2022-10-20T18:13:08.413Z,94.27
2022-10-20T18:14:08.327Z,94.37
2022-10-20T18:15:08.331Z,94.37
2022-10-20T18:16:08.338Z,94.12
2022-10-20T18:17:08.328Z,94.48
2022-10-20T18:18:08.288Z,93.66
2022-10-20T18:19:08.300Z,93.71
2022-10-20T18:20:08.436Z,93.51
2022-10-20T18:21:08.278Z,93.45
2022-10-20T18:22:09.255Z,93.15
2022-10-20T18:23:08.275Z,93.25
2022-10-20T18:24:08.229Z,93.55
2022-10-20T18:25:08.243Z,94.42
2022-10-20T18:26:08.385Z,94.73
2022-10-20T18:27:08.356Z,94.82
2022-10-20T18:28:08.220Z,94.93
2022-10-20T18:29:08.348Z,95.23
2022-10-20T18:30:08.206Z,95.54
2022-10-20T18:31:08.113Z,95.03
2022-10-20T18:32:08.143Z,95.03
2022-10-20T18:33:08.086Z,95.23
2022-10-20T18:34:08.216Z,94.73
2022-10-20T18:35:08.158Z,95.03
2022-10-20T18:36:08.887Z,95.13
2022-10-20T18:37:08.075Z,95.48